createdAt,value
2019-02-25T00:00:17.312Z,1032.48
2019-02-25T00:01:27.249Z,1032.52
2019-02-25T00:02:36.684Z,1032.47
2019-02-25T00:03:46.371Z,1032.48
2019-02-25T00:04:56.318Z,1032.52
2019-02-25T00:06:06.064Z,1032.51
2019-02-25T00:07:16.014Z,1032.54
2019-02-25T00:08:25.456Z,1032.51
2019-02-25T00:09:35.152Z,1032.51
2019-02-25T00:10:45.103Z,1032.49
2019-02-25T00:11:55.044Z,1032.45
2019-02-25T00:13:04.966Z,1032.46
2019-02-25T00:14:14.912Z,1032.47
2019-02-25T00:15:24.832Z,1032.47
2019-02-25T00:16:34.514Z,1032.41
2019-02-25T00:17:44.448Z,1032.45
2019-02-25T00:18:53.891Z,1032.5
2019-02-25T00:20:03.844Z,1032.48
2019-02-25T00:21:13.785Z,1032.56
2019-02-25T00:22:23.470Z,1032.55
2019-02-25T00:23:33.414Z,1032.59
2019-02-25T00:24:43.099Z,1032.52
2019-02-25T00:25:53.030Z,1032.48
2019-02-25T00:27:03.014Z,1032.47
2019-02-25T00:28:12.697Z,1032.42
2019-02-25T00:29:22.393Z,1032.46
2019-02-25T00:30:32.330Z,1032.44
2019-02-25T00:31:42.272Z,1032.4
2019-02-25T00:32:51.959Z,1032.32
2019-02-25T00:34:01.406Z,1032.32
2019-02-25T00:35:11.351Z,1032.29
2019-02-25T00:36:21.303Z,1032.27
2019-02-25T00:37:30.495Z,1032.28
2019-02-25T00:38:40.440Z,1032.32
2019-02-25T00:39:49.881Z,1032.28
2019-02-25T00:40:59.365Z,1032.29
2019-02-25T00:42:09.307Z,1032.23
2019-02-25T00:43:19.239Z,1032.29
2019-02-25T00:44:29.177Z,1032.29
2019-02-25T00:45:39.123Z,1032.27
2019-02-25T00:46:48.815Z,1032.26
2019-02-25T00:47:58.759Z,1032.3
2019-02-25T00:49:08.707Z,1032.26
2019-02-25T00:50:18.418Z,1032.27
2019-02-25T00:51:28.452Z,1032.3
2019-02-25T00:52:38.146Z,1032.33
2019-02-25T00:53:48.088Z,1032.31
2019-02-25T00:54:58.033Z,1032.32
2019-02-25T00:56:07.884Z,1032.27
2019-02-25T00:57:17.829Z,1032.29
2019-02-25T00:58:27.789Z,1032.29
2019-02-25T00:59:37.731Z,1032.3
2019-02-25T01:00:47.664Z,1032.29
2019-02-25T01:01:57.663Z,1032.27
2019-02-25T01:03:07.339Z,1032.27
2019-02-25T01:04:17.302Z,1032.26
2019-02-25T01:05:26.991Z,1032.32
2019-02-25T01:06:36.673Z,1032.34
2019-02-25T01:07:46.358Z,1032.37
2019-02-25T01:08:56.039Z,1032.33
2019-02-25T01:10:05.224Z,1032.33
2019-02-25T01:11:14.908Z,1032.28
2019-02-25T01:12:24.837Z,1032.27
2019-02-25T01:13:34.527Z,1032.24
2019-02-25T01:14:44.467Z,1032.23
2019-02-25T01:15:54.153Z,1032.24
2019-02-25T01:17:03.833Z,1032.23
2019-02-25T01:18:13.767Z,1032.23
2019-02-25T01:19:23.708Z,1032.24
2019-02-25T01:20:33.424Z,1032.23
2019-02-25T01:21:43.098Z,1032.27
2019-02-25T01:22:52.796Z,1032.29
2019-02-25T01:24:02.754Z,1032.28
2019-02-25T01:25:12.689Z,1032.27
2019-02-25T01:26:22.630Z,1032.28
2019-02-25T01:27:32.578Z,1032.28
2019-02-25T01:28:42.018Z,1032.3
2019-02-25T01:29:51.451Z,1032.28
2019-02-25T01:31:01.144Z,1032.31
2019-02-25T01:32:11.091Z,1032.32
2019-02-25T01:33:20.773Z,1032.29
2019-02-25T01:34:30.506Z,1032.26
2019-02-25T01:35:40.433Z,1032.29
2019-02-25T01:36:50.365Z,1032.28
2019-02-25T01:38:00.066Z,1032.23
2019-02-25T01:39:10.058Z,1032.22
2019-02-25T01:40:19.757Z,1032.27
2019-02-25T01:41:29.446Z,1032.25
2019-02-25T01:42:39.385Z,1032.24
2019-02-25T01:43:49.134Z,1032.23
2019-02-25T01:44:58.833Z,1032.19
2019-02-25T01:46:08.537Z,1032.18
2019-02-25T01:47:18.223Z,1032.15
2019-02-25T01:48:28.157Z,1032.12
2019-02-25T01:49:37.852Z,1032.12
2019-02-25T01:50:47.795Z,1032.08
2019-02-25T01:51:57.472Z,1032.13
2019-02-25T01:53:07.406Z,1032.11
2019-02-25T01:54:16.847Z,1032.09
2019-02-25T01:55:26.547Z,1032.09
2019-02-25T01:56:36.232Z,1032.15
2019-02-25T01:57:45.913Z,1032.16
2019-02-25T01:58:55.835Z,1032.16
2019-02-25T02:00:05.775Z,1032.1
2019-02-25T02:01:15.225Z,1032.1
2019-02-25T02:02:24.907Z,1032.09
2019-02-25T02:03:34.847Z,1032.11
2019-02-25T02:04:44.274Z,1032.14
2019-02-25T02:05:53.748Z,1032.12
2019-02-25T02:07:03.227Z,1032.17
2019-02-25T02:08:12.942Z,1032.21
2019-02-25T02:09:22.878Z,1032.17
2019-02-25T02:10:32.574Z,1032.15
2019-02-25T02:11:42.022Z,1032.11
2019-02-25T02:12:51.967Z,1032.1
2019-02-25T02:14:01.651Z,1032.08
2019-02-25T02:15:11.346Z,1032.05
2019-02-25T02:16:21.295Z,1032.04
2019-02-25T02:17:31.242Z,1032.05
2019-02-25T02:18:41.245Z,1032.04
2019-02-25T02:19:51.185Z,1032
2019-02-25T02:21:01.114Z,1031.99
2019-02-25T02:22:10.804Z,1031.98
2019-02-25T02:23:20.749Z,1031.96
2019-02-25T02:24:30.696Z,1031.99
2019-02-25T02:25:40.629Z,1031.97
2019-02-25T02:26:50.581Z,1032
2019-02-25T02:28:00.268Z,1031.98
2019-02-25T02:29:09.457Z,1031.99
2019-02-25T02:30:18.896Z,1031.98
2019-02-25T02:31:28.873Z,1031.91
2019-02-25T02:32:38.833Z,1031.89
2019-02-25T02:33:48.850Z,1031.87
2019-02-25T02:34:58.537Z,1031.78
2019-02-25T02:36:11.385Z,1031.75
2019-02-25T02:37:21.600Z,1031.75
2019-02-25T02:38:31.539Z,1031.72
2019-02-25T02:39:41.471Z,1031.78
2019-02-25T02:40:51.426Z,1031.79
2019-02-25T02:42:01.374Z,1031.85
2019-02-25T02:43:11.324Z,1031.87
2019-02-25T02:44:21.284Z,1031.8
2019-02-25T02:45:30.734Z,1031.8
2019-02-25T02:46:40.187Z,1031.75
2019-02-25T02:47:49.867Z,1031.71
2019-02-25T02:48:59.800Z,1031.65
2019-02-25T02:50:09.760Z,1031.65
2019-02-25T02:51:19.705Z,1031.67
2019-02-25T02:52:29.643Z,1031.7
2019-02-25T02:53:39.603Z,1031.7
2019-02-25T02:54:49.303Z,1031.73
2019-02-25T02:55:59.301Z,1031.72
2019-02-25T02:57:09.027Z,1031.76
2019-02-25T02:58:18.720Z,1031.74
2019-02-25T02:59:28.401Z,1031.72
2019-02-25T03:00:38.134Z,1031.69
2019-02-25T03:01:47.845Z,1031.64
2019-02-25T03:02:57.773Z,1031.59
2019-02-25T03:04:07.727Z,1031.62
2019-02-25T03:05:17.674Z,1031.59
2019-02-25T03:06:27.613Z,1031.6
2019-02-25T03:07:37.566Z,1031.61
2019-02-25T03:08:47.256Z,1031.61
2019-02-25T03:09:58.843Z,1031.63
2019-02-25T03:11:08.677Z,1031.67
2019-02-25T03:12:18.611Z,1031.69
2019-02-25T03:13:28.341Z,1031.65
2019-02-25T03:14:38.373Z,1031.73
2019-02-25T03:15:48.319Z,1031.74
2019-02-25T03:16:57.782Z,1031.79
2019-02-25T03:18:07.799Z,1031.79
2019-02-25T03:19:17.746Z,1031.83
2019-02-25T03:20:26.933Z,1031.81
2019-02-25T03:21:36.861Z,1031.87
2019-02-25T03:22:46.815Z,1031.84
2019-02-25T03:23:56.507Z,1031.84
2019-02-25T03:25:06.209Z,1031.86
2019-02-25T03:26:16.145Z,1031.9
2019-02-25T03:27:26.086Z,1031.9
2019-02-25T03:28:36.022Z,1031.93
2019-02-25T03:29:45.448Z,1031.88
2019-02-25T03:30:55.139Z,1031.88
2019-02-25T03:32:05.110Z,1031.9
2019-02-25T03:33:15.077Z,1031.88
2019-02-25T03:34:24.835Z,1031.89
2019-02-25T03:35:34.770Z,1031.86
2019-02-25T03:36:44.711Z,1031.85
2019-02-25T03:37:54.652Z,1031.82
2019-02-25T03:39:04.617Z,1031.84
2019-02-25T03:40:13.834Z,1031.81
2019-02-25T03:41:23.762Z,1031.8
2019-02-25T03:42:33.465Z,1031.79
2019-02-25T03:43:43.246Z,1031.82
2019-02-25T03:44:53.173Z,1031.87
2019-02-25T03:46:02.612Z,1031.87
2019-02-25T03:47:12.543Z,1031.87
2019-02-25T03:48:22.481Z,1031.86
2019-02-25T03:49:32.422Z,1031.83
2019-02-25T03:50:42.362Z,1031.82
2019-02-25T03:51:52.340Z,1031.85
2019-02-25T03:53:02.287Z,1031.85
2019-02-25T03:54:12.221Z,1031.81
2019-02-25T03:55:21.918Z,1031.86
2019-02-25T03:56:31.617Z,1031.81
2019-02-25T03:57:41.318Z,1031.84
2019-02-25T03:58:51.255Z,1031.78
2019-02-25T04:00:00.793Z,1031.78
2019-02-25T04:01:10.471Z,1031.81
2019-02-25T04:02:20.246Z,1031.77
2019-02-25T04:03:29.701Z,1031.75
2019-02-25T04:04:39.413Z,1031.7
2019-02-25T04:05:49.123Z,1031.73
2019-02-25T04:06:59.056Z,1031.76
2019-02-25T04:08:08.752Z,1031.78
2019-02-25T04:09:18.452Z,1031.77
2019-02-25T04:10:28.390Z,1031.81
2019-02-25T04:11:38.337Z,1031.8
2019-02-25T04:12:48.029Z,1031.78
2019-02-25T04:13:57.724Z,1031.76
2019-02-25T04:15:07.667Z,1031.79
2019-02-25T04:16:17.635Z,1031.77
2019-02-25T04:17:27.315Z,1031.76
2019-02-25T04:18:37.010Z,1031.77
2019-02-25T04:19:46.960Z,1031.8
2019-02-25T04:20:56.912Z,1031.69
2019-02-25T04:22:06.866Z,1031.68
2019-02-25T04:23:16.811Z,1031.65
2019-02-25T04:24:26.754Z,1031.6
2019-02-25T04:25:36.708Z,1031.63
2019-02-25T04:26:46.416Z,1031.65
2019-02-25T04:27:58.321Z,1031.64
2019-02-25T04:29:08.271Z,1031.64
2019-02-25T04:30:18.202Z,1031.66
2019-02-25T04:31:28.172Z,1031.65
2019-02-25T04:32:37.932Z,1031.61
2019-02-25T04:33:47.882Z,1031.57
2019-02-25T04:34:57.560Z,1031.47
2019-02-25T04:36:07.252Z,1031.48
2019-02-25T04:37:17.206Z,1031.44
2019-02-25T04:38:27.151Z,1031.48
2019-02-25T04:39:37.095Z,1031.5
2019-02-25T04:40:47.045Z,1031.53
2019-02-25T04:41:56.975Z,1031.56
2019-02-25T04:43:06.920Z,1031.61
2019-02-25T04:44:16.852Z,1031.63
2019-02-25T04:45:26.541Z,1031.66
2019-02-25T04:46:36.489Z,1031.67
2019-02-25T04:47:46.254Z,1031.69
2019-02-25T04:48:55.936Z,1031.74
2019-02-25T04:50:05.622Z,1031.78
2019-02-25T04:51:15.354Z,1031.82
2019-02-25T04:52:25.321Z,1031.78
2019-02-25T04:53:35.271Z,1031.79
2019-02-25T04:54:45.223Z,1031.77
2019-02-25T04:55:54.865Z,1031.8
2019-02-25T04:57:04.323Z,1031.84
2019-02-25T04:58:13.535Z,1031.86
2019-02-25T04:59:23.525Z,1031.91
2019-02-25T05:00:32.730Z,1031.96
2019-02-25T05:01:42.687Z,1032.01
2019-02-25T05:02:52.671Z,1032.01
2019-02-25T05:04:02.392Z,1032.02
2019-02-25T05:05:11.838Z,1031.98
2019-02-25T05:06:21.805Z,1031.98
2019-02-25T05:07:31.502Z,1031.92
2019-02-25T05:08:41.456Z,1031.93
2019-02-25T05:09:51.411Z,1031.91
2019-02-25T05:11:01.367Z,1031.93
2019-02-25T05:12:11.303Z,1031.9
2019-02-25T05:13:20.998Z,1031.94
2019-02-25T05:14:30.930Z,1031.92
2019-02-25T05:15:40.888Z,1031.91
2019-02-25T05:16:50.580Z,1031.87
2019-02-25T05:18:00.524Z,1031.88
2019-02-25T05:19:10.486Z,1031.88
2019-02-25T05:20:20.442Z,1031.91
2019-02-25T05:21:30.152Z,1032.01
2019-02-25T05:22:40.096Z,1032.02
2019-02-25T05:23:49.791Z,1032.05
2019-02-25T05:24:59.762Z,1032.11
2019-02-25T05:26:09.452Z,1032.13
2019-02-25T05:27:19.141Z,1032.12
2019-02-25T05:28:29.093Z,1032.11
2019-02-25T05:29:39.191Z,1032.12
2019-02-25T05:30:49.150Z,1032.11
2019-02-25T05:31:59.091Z,1032.07
2019-02-25T05:33:08.777Z,1032.05
2019-02-25T05:34:18.236Z,1032.02
2019-02-25T05:35:28.187Z,1032.02
2019-02-25T05:36:38.240Z,1032.08
2019-02-25T05:37:48.189Z,1032.08
2019-02-25T05:38:58.719Z,1032.04
2019-02-25T05:40:08.596Z,1032.02
2019-02-25T05:41:18.664Z,1031.98
2019-02-25T05:42:28.596Z,1031.96
2019-02-25T05:43:38.285Z,1031.93
2019-02-25T05:44:48.253Z,1031.96
2019-02-25T05:45:57.678Z,1032.02
2019-02-25T05:47:07.626Z,1032.01
2019-02-25T05:48:17.332Z,1032.01
2019-02-25T05:49:27.291Z,1032.01
2019-02-25T05:50:37.253Z,1032.04
2019-02-25T05:51:47.222Z,1032.04
2019-02-25T05:52:56.659Z,1032.07
2019-02-25T05:54:06.393Z,1032.03
2019-02-25T05:55:16.347Z,1032.06
2019-02-25T05:56:26.300Z,1032.07
2019-02-25T05:57:36.256Z,1032.02
2019-02-25T05:58:45.980Z,1032.01
2019-02-25T05:59:55.934Z,1032.03
2019-02-25T06:01:05.781Z,1032.06
2019-02-25T06:02:15.734Z,1032.07
2019-02-25T06:03:25.672Z,1032.12
2019-02-25T06:04:35.221Z,1032.05
2019-02-25T06:05:44.925Z,1032.09
2019-02-25T06:06:54.867Z,1032.05
2019-02-25T06:08:04.651Z,1032.06
2019-02-25T06:09:14.603Z,1032.05
2019-02-25T06:10:24.038Z,1032.02
2019-02-25T06:11:33.989Z,1032.06
2019-02-25T06:12:43.670Z,1032.08
2019-02-25T06:13:53.613Z,1032.11
2019-02-25T06:15:03.358Z,1032.09
2019-02-25T06:16:13.355Z,1032.13
2019-02-25T06:17:23.337Z,1032.11
2019-02-25T06:18:33.286Z,1032.08
2019-02-25T06:19:43.225Z,1032.05
2019-02-25T06:20:52.909Z,1032.06
2019-02-25T06:22:02.598Z,1032.11
2019-02-25T06:23:12.550Z,1032.11
2019-02-25T06:24:22.513Z,1032.12
2019-02-25T06:25:32.458Z,1032.15
2019-02-25T06:26:41.899Z,1032.17
2019-02-25T06:27:51.602Z,1032.17
2019-02-25T06:29:01.558Z,1032.18
2019-02-25T06:30:11.516Z,1032.19
2019-02-25T06:31:21.228Z,1032.17
2019-02-25T06:32:30.914Z,1032.15
2019-02-25T06:33:40.866Z,1032.15
2019-02-25T06:34:52.733Z,1032.19
2019-02-25T06:36:02.692Z,1032.18
2019-02-25T06:37:12.655Z,1032.2
2019-02-25T06:38:22.449Z,1032.2
2019-02-25T06:39:32.400Z,1032.19
2019-02-25T06:40:42.354Z,1032.2
2019-02-25T06:41:51.798Z,1032.25
2019-02-25T06:43:01.746Z,1032.31
2019-02-25T06:44:11.692Z,1032.3
2019-02-25T06:45:21.626Z,1032.28
2019-02-25T06:46:31.855Z,1032.26
2019-02-25T06:47:41.816Z,1032.32
2019-02-25T06:48:51.758Z,1032.31
2019-02-25T06:50:01.702Z,1032.31
2019-02-25T06:51:11.669Z,1032.33
2019-02-25T06:52:21.125Z,1032.35
2019-02-25T06:53:31.074Z,1032.38
2019-02-25T06:54:41.034Z,1032.35
2019-02-25T06:55:50.724Z,1032.36
2019-02-25T06:57:00.190Z,1032.32
2019-02-25T06:58:10.119Z,1032.38
2019-02-25T06:59:19.806Z,1032.4
2019-02-25T07:00:29.755Z,1032.42
2019-02-25T07:01:39.219Z,1032.41
2019-02-25T07:02:49.214Z,1032.43
2019-02-25T07:03:59.188Z,1032.42
2019-02-25T07:05:08.884Z,1032.41
2019-02-25T07:06:18.827Z,1032.42
2019-02-25T07:07:28.522Z,1032.47
2019-02-25T07:08:38.477Z,1032.48
2019-02-25T07:09:48.183Z,1032.51
2019-02-25T07:10:58.121Z,1032.52
2019-02-25T07:12:08.081Z,1032.56
2019-02-25T07:13:18.047Z,1032.61
2019-02-25T07:14:28.019Z,1032.6
2019-02-25T07:15:38.032Z,1032.61
2019-02-25T07:16:47.528Z,1032.65
2019-02-25T07:17:57.798Z,1032.61
2019-02-25T07:19:09.695Z,1032.65
2019-02-25T07:20:19.133Z,1032.58
2019-02-25T07:21:28.842Z,1032.6
2019-02-25T07:22:38.831Z,1032.61
2019-02-25T07:23:48.768Z,1032.59
2019-02-25T07:24:58.278Z,1032.6
2019-02-25T07:26:07.992Z,1032.63
2019-02-25T07:27:17.749Z,1032.63
2019-02-25T07:28:27.709Z,1032.66
2019-02-25T07:29:39.511Z,1032.67
2019-02-25T07:30:49.489Z,1032.65
2019-02-25T07:31:58.716Z,1032.59
2019-02-25T07:33:08.692Z,1032.61
2019-02-25T07:34:18.677Z,1032.61
2019-02-25T07:35:28.651Z,1032.64
2019-02-25T07:36:38.107Z,1032.66
2019-02-25T07:37:48.068Z,1032.64
2019-02-25T07:38:59.392Z,1032.64
2019-02-25T07:40:09.352Z,1032.65
2019-02-25T07:41:19.055Z,1032.63
2019-02-25T07:42:28.969Z,1032.7
2019-02-25T07:43:38.929Z,1032.69
2019-02-25T07:44:48.890Z,1032.69
2019-02-25T07:45:58.336Z,1032.69
2019-02-25T07:47:08.306Z,1032.64
2019-02-25T07:48:18.082Z,1032.68
2019-02-25T07:49:27.522Z,1032.63
2019-02-25T07:50:36.954Z,1032.61
2019-02-25T07:51:54.456Z,1032.64
2019-02-25T07:53:04.431Z,1032.7
2019-02-25T07:54:14.396Z,1032.66
2019-02-25T07:55:24.363Z,1032.7
2019-02-25T07:56:34.326Z,1032.74
2019-02-25T07:57:44.267Z,1032.75
2019-02-25T07:58:54.278Z,1032.77
2019-02-25T08:00:04.236Z,1032.78
2019-02-25T08:01:13.695Z,1032.75
2019-02-25T08:02:23.624Z,1032.76
2019-02-25T08:03:33.307Z,1032.71
2019-02-25T08:04:43.044Z,1032.72
2019-02-25T08:05:53.040Z,1032.68
2019-02-25T08:07:03.034Z,1032.68
2019-02-25T08:08:12.734Z,1032.71
2019-02-25T08:09:22.435Z,1032.72
2019-02-25T08:10:32.415Z,1032.74
2019-02-25T08:11:42.123Z,1032.73
2019-02-25T08:12:52.091Z,1032.75
2019-02-25T08:14:01.784Z,1032.75
2019-02-25T08:15:11.488Z,1032.75
2019-02-25T08:16:21.484Z,1032.75
2019-02-25T08:17:31.456Z,1032.73
2019-02-25T08:18:41.168Z,1032.68
2019-02-25T08:19:51.142Z,1032.73
2019-02-25T08:21:01.185Z,1032.7
2019-02-25T08:22:11.101Z,1032.7
2019-02-25T08:23:21.055Z,1032.62
2019-02-25T08:24:31.064Z,1032.59
2019-02-25T08:25:40.770Z,1032.59
2019-02-25T08:26:52.275Z,1032.6
2019-02-25T08:28:02.236Z,1032.54
2019-02-25T08:29:11.972Z,1032.47
2019-02-25T08:30:21.409Z,1032.5
2019-02-25T08:31:31.374Z,1032.53
2019-02-25T08:32:41.331Z,1032.52
2019-02-25T08:33:51.025Z,1032.46
2019-02-25T08:35:02.805Z,1032.48
2019-02-25T08:36:12.738Z,1032.52
2019-02-25T08:37:22.435Z,1032.52
2019-02-25T08:38:32.112Z,1032.53
2019-02-25T08:39:42.060Z,1032.54
2019-02-25T08:40:51.754Z,1032.55
2019-02-25T08:42:01.747Z,1032.52
2019-02-25T08:43:11.713Z,1032.55
2019-02-25T08:44:21.675Z,1032.53
2019-02-25T08:45:31.668Z,1032.51
2019-02-25T08:46:41.689Z,1032.45
2019-02-25T08:47:51.633Z,1032.41
2019-02-25T08:49:03.293Z,1032.45
2019-02-25T08:50:12.993Z,1032.36
2019-02-25T08:51:22.950Z,1032.43
2019-02-25T08:52:32.916Z,1032.44
2019-02-25T08:53:42.869Z,1032.5
2019-02-25T08:54:52.851Z,1032.55
2019-02-25T08:56:02.601Z,1032.58
2019-02-25T08:57:12.608Z,1032.57
2019-02-25T08:58:22.117Z,1032.61
2019-02-25T08:59:31.580Z,1032.61
2019-02-25T09:00:41.275Z,1032.62
2019-02-25T09:01:51.232Z,1032.64
2019-02-25T09:03:01.225Z,1032.59
2019-02-25T09:04:11.207Z,1032.61
2019-02-25T09:05:20.919Z,1032.64
2019-02-25T09:06:30.633Z,1032.64
2019-02-25T09:07:42.507Z,1032.59
2019-02-25T09:08:52.447Z,1032.62
2019-02-25T09:10:02.454Z,1032.69
2019-02-25T09:11:14.527Z,1032.68
2019-02-25T09:12:24.573Z,1032.66
2019-02-25T09:13:34.509Z,1032.69
2019-02-25T09:14:44.483Z,1032.7
2019-02-25T09:15:54.297Z,1032.69
2019-02-25T09:17:04.279Z,1032.66
2019-02-25T09:18:13.749Z,1032.65
2019-02-25T09:19:23.525Z,1032.62
2019-02-25T09:20:33.502Z,1032.57
2019-02-25T09:21:43.481Z,1032.58
2019-02-25T09:22:53.179Z,1032.55
2019-02-25T09:24:02.886Z,1032.52
2019-02-25T09:25:12.842Z,1032.58
2019-02-25T09:26:22.805Z,1032.53
2019-02-25T09:27:32.513Z,1032.53
2019-02-25T09:28:42.235Z,1032.54
2019-02-25T09:29:52.180Z,1032.54
2019-02-25T09:31:01.889Z,1032.5
2019-02-25T09:32:13.375Z,1032.51
2019-02-25T09:33:24.370Z,1032.55
2019-02-25T09:34:34.067Z,1032.52
2019-02-25T09:35:43.780Z,1032.5
2019-02-25T09:36:53.739Z,1032.56
2019-02-25T09:38:03.464Z,1032.51
2019-02-25T09:39:13.167Z,1032.55
2019-02-25T09:40:24.505Z,1032.59
2019-02-25T09:41:34.454Z,1032.61
2019-02-25T09:42:44.437Z,1032.53
2019-02-25T09:43:54.388Z,1032.55
2019-02-25T09:45:04.340Z,1032.5
2019-02-25T09:46:14.295Z,1032.55
2019-02-25T09:47:24.275Z,1032.55
2019-02-25T09:48:34.001Z,1032.52
2019-02-25T09:49:43.960Z,1032.47
2019-02-25T09:50:54.011Z,1032.45
2019-02-25T09:52:04.039Z,1032.46
2019-02-25T09:53:14.062Z,1032.51
2019-02-25T09:54:23.316Z,1032.48
2019-02-25T09:55:33.305Z,1032.47
2019-02-25T09:56:43.363Z,1032.48
2019-02-25T09:57:53.334Z,1032.51
2019-02-25T09:59:03.582Z,1032.51
2019-02-25T10:00:13.039Z,1032.53
2019-02-25T10:01:22.767Z,1032.49
2019-02-25T10:02:32.771Z,1032.45
2019-02-25T10:03:42.757Z,1032.42
2019-02-25T10:04:52.714Z,1032.45
2019-02-25T10:06:02.424Z,1032.4
2019-02-25T10:07:13.515Z,1032.36
2019-02-25T10:08:23.238Z,1032.31
2019-02-25T10:09:32.954Z,1032.3
2019-02-25T10:10:42.661Z,1032.26
2019-02-25T10:11:52.360Z,1032.24
2019-02-25T10:13:02.322Z,1032.23
2019-02-25T10:14:12.028Z,1032.15
2019-02-25T10:15:21.993Z,1032.16
2019-02-25T10:16:31.962Z,1032.19
2019-02-25T10:17:41.976Z,1032.18
2019-02-25T10:18:51.940Z,1032.21
2019-02-25T10:20:01.901Z,1032.21
2019-02-25T10:21:11.641Z,1032.22
2019-02-25T10:22:21.623Z,1032.24
2019-02-25T10:23:33.310Z,1032.2
2019-02-25T10:24:43.447Z,1032.19
2019-02-25T10:25:53.408Z,1032.17
2019-02-25T10:27:03.363Z,1032.21
2019-02-25T10:28:13.179Z,1032.19
2019-02-25T10:29:23.155Z,1032.21
2019-02-25T10:30:33.129Z,1032.16
2019-02-25T10:31:43.780Z,1032.19
2019-02-25T10:32:53.553Z,1032.2
2019-02-25T10:34:03.802Z,1032.15
2019-02-25T10:35:15.243Z,1032.16
2019-02-25T10:36:25.325Z,1032.12
2019-02-25T10:37:36.286Z,1032.11
2019-02-25T10:38:48.878Z,1032.02
2019-02-25T10:39:58.931Z,1032.05
2019-02-25T10:41:08.908Z,1032.03
2019-02-25T10:42:23.401Z,1032.08
2019-02-25T10:43:39.906Z,1032.05
2019-02-25T10:44:50.504Z,1032.04
2019-02-25T10:46:00.213Z,1032.06
2019-02-25T10:47:19.799Z,1032.07
2019-02-25T10:48:31.089Z,1032.01
2019-02-25T10:49:41.044Z,1031.96
2019-02-25T10:50:55.888Z,1032
2019-02-25T10:52:12.865Z,1031.93
2019-02-25T10:53:24.757Z,1031.96
2019-02-25T10:54:34.483Z,1031.91
2019-02-25T10:55:46.334Z,1031.87
2019-02-25T10:56:58.422Z,1031.8
2019-02-25T10:58:08.400Z,1031.79
2019-02-25T10:59:18.113Z,1031.74
2019-02-25T11:00:30.272Z,1031.78
2019-02-25T11:01:47.489Z,1031.81
2019-02-25T11:02:58.172Z,1031.82
2019-02-25T11:04:08.260Z,1031.81
2019-02-25T11:05:23.267Z,1031.79
2019-02-25T11:06:37.710Z,1031.75
2019-02-25T11:07:47.738Z,1031.75
2019-02-25T11:08:57.696Z,1031.75
2019-02-25T11:10:09.404Z,1031.8
2019-02-25T11:11:27.103Z,1031.74
2019-02-25T11:12:37.136Z,1031.7
2019-02-25T11:13:47.642Z,1031.71
2019-02-25T11:14:59.290Z,1031.71
2019-02-25T11:16:15.963Z,1031.68
2019-02-25T11:17:28.066Z,1031.71
2019-02-25T11:18:38.036Z,1031.66
2019-02-25T11:19:48.281Z,1031.66
2019-02-25T11:21:06.894Z,1031.72
2019-02-25T11:22:18.364Z,1031.71
2019-02-25T11:23:28.080Z,1031.68
2019-02-25T11:24:37.542Z,1031.62
2019-02-25T11:25:55.763Z,1031.63
2019-02-25T11:27:09.792Z,1031.63
2019-02-25T11:28:24.967Z,1031.54
2019-02-25T11:29:44.046Z,1031.53
2019-02-25T11:30:56.112Z,1031.5
2019-02-25T11:32:05.575Z,1031.52
2019-02-25T11:33:15.286Z,1031.55
2019-02-25T11:34:35.656Z,1031.47
2019-02-25T11:35:48.037Z,1031.48
2019-02-25T11:36:59.483Z,1031.52
2019-02-25T11:38:09.543Z,1031.49
2019-02-25T11:39:19.519Z,1031.52
2019-02-25T11:40:36.387Z,1031.51
2019-02-25T11:41:48.378Z,1031.53
2019-02-25T11:42:58.113Z,1031.5
2019-02-25T11:44:10.634Z,1031.53
2019-02-25T11:45:30.607Z,1031.51
2019-02-25T11:46:41.666Z,1031.5
2019-02-25T11:47:50.882Z,1031.56
2019-02-25T11:49:00.898Z,1031.52
2019-02-25T11:50:10.620Z,1031.59
2019-02-25T11:51:20.582Z,1031.5
2019-02-25T11:52:32.499Z,1031.49
2019-02-25T11:53:42.492Z,1031.48
2019-02-25T11:54:52.436Z,1031.42
2019-02-25T11:56:02.399Z,1031.36
2019-02-25T11:57:12.354Z,1031.35
2019-02-25T11:58:22.309Z,1031.29
2019-02-25T11:59:32.018Z,1031.27
2019-02-25T12:00:42.084Z,1031.23
2019-02-25T12:01:52.136Z,1031.23
2019-02-25T12:03:01.856Z,1031.23
2019-02-25T12:04:11.812Z,1031.23
2019-02-25T12:05:21.549Z,1031.21
2019-02-25T12:06:31.522Z,1031.25
2019-02-25T12:07:41.499Z,1031.2
2019-02-25T12:08:51.470Z,1031.18
2019-02-25T12:10:01.479Z,1031.16
2019-02-25T12:11:10.460Z,1031.04
2019-02-25T12:12:20.412Z,1031.07
2019-02-25T12:13:30.129Z,1030.95
2019-02-25T12:14:39.879Z,1031
2019-02-25T12:15:49.612Z,1030.89
2019-02-25T12:16:59.310Z,1030.86
2019-02-25T12:18:08.800Z,1030.81
2019-02-25T12:19:18.533Z,1030.84
2019-02-25T12:20:28.513Z,1030.79
2019-02-25T12:21:38.466Z,1030.77
2019-02-25T12:22:50.001Z,1030.76
2019-02-25T12:24:00.082Z,1030.68
2019-02-25T12:25:10.030Z,1030.64
2019-02-25T12:26:19.506Z,1030.71
2019-02-25T12:27:29.214Z,1030.63
2019-02-25T12:28:39.181Z,1030.63
2019-02-25T12:29:49.154Z,1030.64
2019-02-25T12:30:59.110Z,1030.56
2019-02-25T12:32:09.083Z,1030.57
2019-02-25T12:33:19.032Z,1030.55
2019-02-25T12:34:29.009Z,1030.57
2019-02-25T12:35:38.726Z,1030.49
2019-02-25T12:36:47.945Z,1030.58
2019-02-25T12:37:57.970Z,1030.46
2019-02-25T12:39:07.731Z,1030.4
2019-02-25T12:40:17.708Z,1030.35
2019-02-25T12:41:27.708Z,1030.31
2019-02-25T12:42:37.669Z,1030.36
2019-02-25T12:43:47.632Z,1030.31
2019-02-25T12:44:57.353Z,1030.24
2019-02-25T12:46:07.056Z,1030.23
2019-02-25T12:47:16.771Z,1030.21
2019-02-25T12:48:26.746Z,1030.18
2019-02-25T12:49:36.475Z,1030.24
2019-02-25T12:50:46.450Z,1030.22
2019-02-25T12:51:56.408Z,1030.2
2019-02-25T12:53:06.134Z,1030.25
2019-02-25T12:54:15.845Z,1030.2
2019-02-25T12:55:25.573Z,1030.21
2019-02-25T12:56:35.308Z,1030.23
2019-02-25T12:57:45.028Z,1030.15
2019-02-25T12:58:55.012Z,1030.12
2019-02-25T13:00:05.882Z,1030.12
2019-02-25T13:01:15.852Z,1030.09
2019-02-25T13:02:25.840Z,1030.05
2019-02-25T13:03:35.815Z,1030.05
2019-02-25T13:04:45.551Z,1030.04
2019-02-25T13:05:55.516Z,1030.01
2019-02-25T13:07:06.936Z,1030.05
2019-02-25T13:08:16.912Z,1029.97
2019-02-25T13:09:26.626Z,1030.02
2019-02-25T13:10:36.650Z,1030.02
2019-02-25T13:11:46.690Z,1030.03
2019-02-25T13:12:56.410Z,1030.04
2019-02-25T13:14:05.892Z,1030.05
2019-02-25T13:15:15.364Z,1030.11
2019-02-25T13:16:25.377Z,1030.07
2019-02-25T13:17:35.102Z,1030.07
2019-02-25T13:18:45.068Z,1030.1
2019-02-25T13:19:54.796Z,1030.02
2019-02-25T13:21:04.528Z,1030.05
2019-02-25T13:22:14.550Z,1029.99
2019-02-25T13:23:24.305Z,1030.06
2019-02-25T13:24:35.159Z,1030.04
2019-02-25T13:25:47.200Z,1030.12
2019-02-25T13:26:56.927Z,1030.07
2019-02-25T13:28:14.138Z,1030.11
2019-02-25T13:29:28.677Z,1030.1
2019-02-25T13:30:38.207Z,1030.12
2019-02-25T13:31:48.290Z,1030.1
2019-02-25T13:32:58.334Z,1030.16
2019-02-25T13:34:07.640Z,1030.12
2019-02-25T13:35:17.676Z,1030.19
2019-02-25T13:36:27.736Z,1030.24
2019-02-25T13:37:37.756Z,1030.27
2019-02-25T13:38:47.570Z,1030.2
2019-02-25T13:39:57.404Z,1030.23
2019-02-25T13:41:07.529Z,1030.25
2019-02-25T13:42:17.606Z,1030.23
2019-02-25T13:43:27.654Z,1030.2
2019-02-25T13:44:37.776Z,1030.26
2019-02-25T13:45:47.888Z,1030.31
2019-02-25T13:46:57.993Z,1030.18
2019-02-25T13:48:07.826Z,1030.17
2019-02-25T13:49:17.404Z,1030.24
2019-02-25T13:50:27.274Z,1030.14
2019-02-25T13:51:37.130Z,1030.11
2019-02-25T13:52:48.120Z,1030.14
2019-02-25T13:53:58.903Z,1030.19
2019-02-25T13:55:09.017Z,1030.18
2019-02-25T13:56:18.829Z,1030.2
2019-02-25T13:57:28.966Z,1030.24
2019-02-25T13:58:39.114Z,1030.21
2019-02-25T13:59:48.947Z,1030.15
2019-02-25T14:00:59.054Z,1030.26
2019-02-25T14:02:09.189Z,1030.26
2019-02-25T14:03:19.298Z,1030.29
2019-02-25T14:04:29.421Z,1030.27
2019-02-25T14:05:38.750Z,1030.25
2019-02-25T14:06:48.783Z,1030.25
2019-02-25T14:07:58.629Z,1030.21
2019-02-25T14:09:08.664Z,1030.26
2019-02-25T14:10:18.738Z,1030.21
2019-02-25T14:11:28.781Z,1030.21